sensor_id;sensor_type;location;lat;lon;timestamp;temperature;humidity
13436;DHT22;6790;49.520;8.504;2023-11-21T00:02:20;8.90;99.90
13436;DHT22;6790;49.520;8.504;2023-11-21T00:04:48;9.00;99.90
13436;DHT22;6790;49.520;8.504;2023-11-21T00:07:14;9.00;99.90
13436;DHT22;6790;49.520;8.504;2023-11-21T00:09:41;9.00;99.90
13436;DHT22;6790;49.520;8.504;2023-11-21T00:12:10;9.00;99.90
13436;DHT22;6790;49.520;8.504;2023-11-21T00:14:37;9.00;99.90
13436;DHT22;6790;49.520;8.504;2023-11-21T00:17:03;9.00;99.90
13436;DHT22;6790;49.520;8.504;2023-11-21T00:19:30;9.00;99.90
13436;DHT22;6790;49.520;8.504;2023-11-21T00:21:57;9.10;99.90
13436;DHT22;6790;49.520;8.504;2023-11-21T00:24:23;9.10;99.90
13436;DHT22;6790;49.520;8.504;2023-11-21T00:26:50;9.10;99.90
13436;DHT22;6790;49.520;8.504;2023-11-21T00:29:16;9.00;99.90
13436;DHT22;6790;49.520;8.504;2023-11-21T00:31:44;8.90;99.90
13436;DHT22;6790;49.520;8.504;2023-11-21T00:34:12;8.90;99.90
13436;DHT22;6790;49.520;8.504;2023-11-21T00:36:37;9.00;99.90
13436;DHT22;6790;49.520;8.504;2023-11-21T00:39:03;9.00;99.90
13436;DHT22;6790;49.520;8.504;2023-11-21T00:41:31;8.90;99.90
13436;DHT22;6790;49.520;8.504;2023-11-21T00:43:57;8.90;99.90
13436;DHT22;6790;49.520;8.504;2023-11-21T00:46:24;8.90;99.90
13436;DHT22;6790;49.520;8.504;2023-11-21T00:48:52;9.00;99.90
13436;DHT22;6790;49.520;8.504;2023-11-21T00:51:19;9.00;99.90
13436;DHT22;6790;49.520;8.504;2023-11-21T00:53:45;8.90;99.90
13436;DHT22;6790;49.520;8.504;2023-11-21T00:56:12;8.90;99.90
13436;DHT22;6790;49.520;8.504;2023-11-21T00:58:38;9.00;99.90
13436;DHT22;6790;49.520;8.504;2023-11-21T01:01:08;9.00;99.90
13436;DHT22;6790;49.520;8.504;2023-11-21T01:03:33;9.00;99.90
13436;DHT22;6790;49.520;8.504;2023-11-21T01:05:59;9.00;99.90
13436;DHT22;6790;49.520;8.504;2023-11-21T01:08:25;9.00;99.90
13436;DHT22;6790;49.520;8.504;2023-11-21T01:10:50;9.00;99.90
13436;DHT22;6790;49.520;8.504;2023-11-21T01:13:16;8.90;99.90
13436;DHT22;6790;49.520;8.504;2023-11-21T01:15:42;9.00;99.90
13436;DHT22;6790;49.520;8.504;2023-11-21T01:18:08;9.00;99.90
13436;DHT22;6790;49.520;8.504;2023-11-21T01:20:36;8.90;99.90
13436;DHT22;6790;49.520;8.504;2023-11-21T01:23:02;9.10;99.90
13436;DHT22;6790;49.520;8.504;2023-11-21T01:25:27;9.00;99.90
13436;DHT22;6790;49.520;8.504;2023-11-21T01:27:53;9.10;99.90
13436;DHT22;6790;49.520;8.504;2023-11-21T01:30:19;9.00;99.90
13436;DHT22;6790;49.520;8.504;2023-11-21T01:32:44;8.90;99.90
13436;DHT22;6790;49.520;8.504;2023-11-21T01:35:10;9.00;99.90
13436;DHT22;6790;49.520;8.504;2023-11-21T01:37:37;9.00;99.90
13436;DHT22;6790;49.520;8.504;2023-11-21T01:40:03;9.10;99.90
13436;DHT22;6790;49.520;8.504;2023-11-21T01:42:33;9.00;99.90
13436;DHT22;6790;49.520;8.504;2023-11-21T01:45:00;9.10;99.90
13436;DHT22;6790;49.520;8.504;2023-11-21T01:47:30;9.00;99.90
13436;DHT22;6790;49.520;8.504;2023-11-21T01:49:57;9.00;99.90
13436;DHT22;6790;49.520;8.504;2023-11-21T01:52:23;9.20;99.90
13436;DHT22;6790;49.520;8.504;2023-11-21T01:54:50;9.10;99.90
13436;DHT22;6790;49.520;8.504;2023-11-21T01:57:15;9.20;99.90
13436;DHT22;6790;49.520;8.504;2023-11-21T01:59:43;9.00;99.90
13436;DHT22;6790;49.520;8.504;2023-11-21T02:02:10;9.10;99.90
13436;DHT22;6790;49.520;8.504;2023-11-21T02:04:36;9.20;99.90
13436;DHT22;6790;49.520;8.504;2023-11-21T02:07:02;9.10;99.90
13436;DHT22;6790;49.520;8.504;2023-11-21T02:09:31;9.20;99.90
13436;DHT22;6790;49.520;8.504;2023-11-21T02:11:58;9.20;99.90
13436;DHT22;6790;49.520;8.504;2023-11-21T02:14:25;9.20;99.90
13436;DHT22;6790;49.520;8.504;2023-11-21T02:16:54;9.20;99.90
13436;DHT22;6790;49.520;8.504;2023-11-21T02:19:23;9.20;99.90
13436;DHT22;6790;49.520;8.504;2023-11-21T02:21:51;9.20;99.90
13436;DHT22;6790;49.520;8.504;2023-11-21T02:24:19;9.10;99.90
13436;DHT22;6790;49.520;8.504;2023-11-21T02:26:48;9.10;99.90
13436;DHT22;6790;49.520;8.504;2023-11-21T02:29:17;9.20;99.90
13436;DHT22;6790;49.520;8.504;2023-11-21T02:31:44;9.20;99.90
13436;DHT22;6790;49.520;8.504;2023-11-21T02:34:16;9.20;99.90
13436;DHT22;6790;49.520;8.504;2023-11-21T02:36:45;9.20;99.90
13436;DHT22;6790;49.520;8.504;2023-11-21T02:39:11;9.20;99.90
13436;DHT22;6790;49.520;8.504;2023-11-21T02:41:37;9.30;99.90
13436;DHT22;6790;49.520;8.504;2023-11-21T02:44:05;9.20;99.90
13436;DHT22;6790;49.520;8.504;2023-11-21T02:46:32;9.20;99.90
13436;DHT22;6790;49.520;8.504;2023-11-21T02:49:00;9.20;99.90
13436;DHT22;6790;49.520;8.504;2023-11-21T02:51:29;9.30;99.90
13436;DHT22;6790;49.520;8.504;2023-11-21T02:53:56;9.30;99.90
13436;DHT22;6790;49.520;8.504;2023-11-21T02:56:26;9.30;99.90
13436;DHT22;6790;49.520;8.504;2023-11-21T02:58:52;9.30;99.90
13436;DHT22;6790;49.520;8.504;2023-11-21T03:01:20;9.30;99.90
13436;DHT22;6790;49.520;8.504;2023-11-21T03:03:46;9.30;99.90
13436;DHT22;6790;49.520;8.504;2023-11-21T03:06:13;9.20;99.90
13436;DHT22;6790;49.520;8.504;2023-11-21T03:08:38;9.10;99.90
13436;DHT22;6790;49.520;8.504;2023-11-21T03:11:04;9.30;99.90
13436;DHT22;6790;49.520;8.504;2023-11-21T03:13:30;9.20;99.90
13436;DHT22;6790;49.520;8.504;2023-11-21T03:15:55;9.30;99.90
13436;DHT22;6790;49.520;8.504;2023-11-21T03:18:21;9.20;99.90
13436;DHT22;6790;49.520;8.504;2023-11-21T03:20:47;9.20;99.90
13436;DHT22;6790;49.520;8.504;2023-11-21T03:23:13;9.30;99.90
13436;DHT22;6790;49.520;8.504;2023-11-21T03:25:39;9.30;99.90
13436;DHT22;6790;49.520;8.504;2023-11-21T03:28:04;9.20;99.90
13436;DHT22;6790;49.520;8.504;2023-11-21T03:30:30;9.30;99.90
13436;DHT22;6790;49.520;8.504;2023-11-21T03:32:56;9.30;99.90
13436;DHT22;6790;49.520;8.504;2023-11-21T03:35:22;9.40;99.90
13436;DHT22;6790;49.520;8.504;2023-11-21T03:37:48;9.40;99.90
13436;DHT22;6790;49.520;8.504;2023-11-21T03:40:14;9.30;99.90
13436;DHT22;6790;49.520;8.504;2023-11-21T03:42:40;9.20;99.90
13436;DHT22;6790;49.520;8.504;2023-11-21T03:45:06;9.40;99.90
13436;DHT22;6790;49.520;8.504;2023-11-21T03:47:32;9.40;99.90
13436;DHT22;6790;49.520;8.504;2023-11-21T03:49:58;9.20;99.90
13436;DHT22;6790;49.520;8.504;2023-11-21T03:52:24;9.20;99.90
13436;DHT22;6790;49.520;8.504;2023-11-21T03:54:50;9.40;99.90
13436;DHT22;6790;49.520;8.504;2023-11-21T03:57:16;9.30;99.90
13436;DHT22;6790;49.520;8.504;2023-11-21T03:59:42;9.30;99.90
13436;DHT22;6790;49.520;8.504;2023-11-21T04:02:09;9.20;99.90
13436;DHT22;6790;49.520;8.504;2023-11-21T04:04:35;9.20;99.90
13436;DHT22;6790;49.520;8.504;2023-11-21T04:07:01;9.30;99.90
13436;DHT22;6790;49.520;8.504;2023-11-21T04:09:27;9.30;99.90
13436;DHT22;6790;49.520;8.504;2023-11-21T04:11:53;9.20;99.90
13436;DHT22;6790;49.520;8.504;2023-11-21T04:14:19;9.40;99.90
13436;DHT22;6790;49.520;8.504;2023-11-21T04:16:45;9.40;99.90
13436;DHT22;6790;49.520;8.504;2023-11-21T04:19:11;9.30;99.90
13436;DHT22;6790;49.520;8.504;2023-11-21T04:21:43;9.30;99.90
13436;DHT22;6790;49.520;8.504;2023-11-21T04:24:09;9.30;99.90
13436;DHT22;6790;49.520;8.504;2023-11-21T04:26:35;9.40;99.90
13436;DHT22;6790;49.520;8.504;2023-11-21T04:29:00;9.20;99.90
13436;DHT22;6790;49.520;8.504;2023-11-21T04:31:26;9.30;99.90
13436;DHT22;6790;49.520;8.504;2023-11-21T04:33:51;9.40;99.90
13436;DHT22;6790;49.520;8.504;2023-11-21T04:36:18;9.20;99.90
13436;DHT22;6790;49.520;8.504;2023-11-21T04:38:45;9.30;99.90
13436;DHT22;6790;49.520;8.504;2023-11-21T04:41:11;9.30;99.90
13436;DHT22;6790;49.520;8.504;2023-11-21T04:43:37;9.40;99.90
13436;DHT22;6790;49.520;8.504;2023-11-21T04:46:03;9.40;99.90
13436;DHT22;6790;49.520;8.504;2023-11-21T04:48:28;9.40;99.90
13436;DHT22;6790;49.520;8.504;2023-11-21T04:50:54;9.40;99.90
13436;DHT22;6790;49.520;8.504;2023-11-21T04:53:20;9.30;99.90
13436;DHT22;6790;49.520;8.504;2023-11-21T04:55:45;9.30;99.90
13436;DHT22;6790;49.520;8.504;2023-11-21T04:58:12;9.30;99.90
13436;DHT22;6790;49.520;8.504;2023-11-21T05:00:38;9.20;99.90
13436;DHT22;6790;49.520;8.504;2023-11-21T05:03:03;9.30;99.90
13436;DHT22;6790;49.520;8.504;2023-11-21T05:05:30;9.30;99.90
13436;DHT22;6790;49.520;8.504;2023-11-21T05:07:56;9.40;99.90
13436;DHT22;6790;49.520;8.504;2023-11-21T05:10:21;9.20;99.90
13436;DHT22;6790;49.520;8.504;2023-11-21T05:12:48;9.30;99.90
13436;DHT22;6790;49.520;8.504;2023-11-21T05:15:15;9.30;99.90
13436;DHT22;6790;49.520;8.504;2023-11-21T05:17:43;9.40;99.90
13436;DHT22;6790;49.520;8.504;2023-11-21T05:20:13;9.40;99.90
13436;DHT22;6790;49.520;8.504;2023-11-21T05:22:40;9.30;99.90
13436;DHT22;6790;49.520;8.504;2023-11-21T05:25:07;9.40;99.90
13436;DHT22;6790;49.520;8.504;2023-11-21T05:27:33;9.40;99.90
13436;DHT22;6790;49.520;8.504;2023-11-21T05:30:01;9.50;99.90
13436;DHT22;6790;49.520;8.504;2023-11-21T05:32:27;9.30;99.90
13436;DHT22;6790;49.520;8.504;2023-11-21T05:34:53;9.30;99.90
13436;DHT22;6790;49.520;8.504;2023-11-21T05:37:19;9.50;99.90
13436;DHT22;6790;49.520;8.504;2023-11-21T05:39:44;9.30;99.90
13436;DHT22;6790;49.520;8.504;2023-11-21T05:42:10;9.40;99.90
13436;DHT22;6790;49.520;8.504;2023-11-21T05:44:37;9.50;99.90
13436;DHT22;6790;49.520;8.504;2023-11-21T05:47:03;9.40;99.90
13436;DHT22;6790;49.520;8.504;2023-11-21T05:49:29;9.50;99.90
13436;DHT22;6790;49.520;8.504;2023-11-21T05:51:56;9.30;99.90
13436;DHT22;6790;49.520;8.504;2023-11-21T05:54:22;9.40;99.90
13436;DHT22;6790;49.520;8.504;2023-11-21T05:56:49;9.40;99.90
13436;DHT22;6790;49.520;8.504;2023-11-21T05:59:15;9.30;99.90
13436;DHT22;6790;49.520;8.504;2023-11-21T06:01:40;9.50;99.90
13436;DHT22;6790;49.520;8.504;2023-11-21T06:04:06;9.30;99.90
13436;DHT22;6790;49.520;8.504;2023-11-21T06:06:33;9.40;99.90
13436;DHT22;6790;49.520;8.504;2023-11-21T06:08:59;9.30;99.90
13436;DHT22;6790;49.520;8.504;2023-11-21T06:11:25;9.30;99.90
13436;DHT22;6790;49.520;8.504;2023-11-21T06:13:51;9.40;99.90
13436;DHT22;6790;49.520;8.504;2023-11-21T06:16:18;9.50;99.90
13436;DHT22;6790;49.520;8.504;2023-11-21T06:18:45;9.40;99.90
13436;DHT22;6790;49.520;8.504;2023-11-21T06:21:11;9.30;99.90
13436;DHT22;6790;49.520;8.504;2023-11-21T06:23:37;9.20;99.90
13436;DHT22;6790;49.520;8.504;2023-11-21T06:26:03;9.40;99.90
13436;DHT22;6790;49.520;8.504;2023-11-21T06:28:30;9.20;99.90
13436;DHT22;6790;49.520;8.504;2023-11-21T06:30:56;9.40;99.90
13436;DHT22;6790;49.520;8.504;2023-11-21T06:33:23;9.20;99.90
13436;DHT22;6790;49.520;8.504;2023-11-21T06:35:49;9.20;99.90
13436;DHT22;6790;49.520;8.504;2023-11-21T06:38:15;9.40;99.90
13436;DHT22;6790;49.520;8.504;2023-11-21T06:40:41;9.40;99.90
13436;DHT22;6790;49.520;8.504;2023-11-21T06:43:06;9.30;99.90
13436;DHT22;6790;49.520;8.504;2023-11-21T06:45:33;9.30;99.90
13436;DHT22;6790;49.520;8.504;2023-11-21T06:47:59;9.30;99.90
13436;DHT22;6790;49.520;8.504;2023-11-21T06:50:25;9.30;99.90
13436;DHT22;6790;49.520;8.504;2023-11-21T06:52:51;9.30;99.90
13436;DHT22;6790;49.520;8.504;2023-11-21T06:55:17;9.40;99.90
13436;DHT22;6790;49.520;8.504;2023-11-21T06:57:42;9.20;99.90
13436;DHT22;6790;49.520;8.504;2023-11-21T07:00:09;9.30;99.90
13436;DHT22;6790;49.520;8.504;2023-11-21T07:02:35;9.40;99.90
13436;DHT22;6790;49.520;8.504;2023-11-21T07:05:01;9.30;99.90
13436;DHT22;6790;49.520;8.504;2023-11-21T07:07:27;9.20;99.90
13436;DHT22;6790;49.520;8.504;2023-11-21T07:09:53;9.20;99.90
13436;DHT22;6790;49.520;8.504;2023-11-21T07:12:19;9.40;99.90
13436;DHT22;6790;49.520;8.504;2023-11-21T07:14:45;9.40;99.90
13436;DHT22;6790;49.520;8.504;2023-11-21T07:17:11;9.40;99.90
13436;DHT22;6790;49.520;8.504;2023-11-21T07:19:38;9.30;99.90
13436;DHT22;6790;49.520;8.504;2023-11-21T07:22:07;9.30;99.90
13436;DHT22;6790;49.520;8.504;2023-11-21T07:24:34;9.40;99.90
13436;DHT22;6790;49.520;8.504;2023-11-21T07:27:00;9.40;99.90
13436;DHT22;6790;49.520;8.504;2023-11-21T07:29:26;9.20;99.90
13436;DHT22;6790;49.520;8.504;2023-11-21T07:31:53;9.30;99.90
13436;DHT22;6790;49.520;8.504;2023-11-21T07:34:21;9.50;99.90
13436;DHT22;6790;49.520;8.504;2023-11-21T07:36:47;9.60;99.90
13436;DHT22;6790;49.520;8.504;2023-11-21T07:39:13;9.50;99.90
13436;DHT22;6790;49.520;8.504;2023-11-21T07:41:44;9.60;99.90
13436;DHT22;6790;49.520;8.504;2023-11-21T07:44:14;9.60;99.90
13436;DHT22;6790;49.520;8.504;2023-11-21T07:46:41;9.60;99.90
13436;DHT22;6790;49.520;8.504;2023-11-21T07:49:06;9.50;99.90
13436;DHT22;6790;49.520;8.504;2023-11-21T07:51:32;9.50;99.90
13436;DHT22;6790;49.520;8.504;2023-11-21T07:53:58;9.50;99.90
13436;DHT22;6790;49.520;8.504;2023-11-21T07:56:23;9.60;99.90
13436;DHT22;6790;49.520;8.504;2023-11-21T07:58:49;9.50;99.90
13436;DHT22;6790;49.520;8.504;2023-11-21T08:01:15;9.60;99.90
13436;DHT22;6790;49.520;8.504;2023-11-21T08:03:41;9.50;99.90
13436;DHT22;6790;49.520;8.504;2023-11-21T08:06:07;9.40;99.90
13436;DHT22;6790;49.520;8.504;2023-11-21T08:08:33;9.60;99.90
13436;DHT22;6790;49.520;8.504;2023-11-21T08:10:58;9.40;99.90
13436;DHT22;6790;49.520;8.504;2023-11-21T08:13:27;9.70;99.90
13436;DHT22;6790;49.520;8.504;2023-11-21T08:15:56;9.50;99.90
13436;DHT22;6790;49.520;8.504;2023-11-21T08:18:26;9.60;99.90
13436;DHT22;6790;49.520;8.504;2023-11-21T08:20:52;9.50;99.90
13436;DHT22;6790;49.520;8.504;2023-11-21T08:23:21;9.60;99.90
13436;DHT22;6790;49.520;8.504;2023-11-21T08:25:51;9.60;99.90
13436;DHT22;6790;49.520;8.504;2023-11-21T08:28:17;9.70;99.90
13436;DHT22;6790;49.520;8.504;2023-11-21T08:30:43;9.60;99.90
13436;DHT22;6790;49.520;8.504;2023-11-21T08:33:09;9.80;99.90
13436;DHT22;6790;49.520;8.504;2023-11-21T08:35:36;9.80;99.90
13436;DHT22;6790;49.520;8.504;2023-11-21T08:38:03;9.80;99.90
13436;DHT22;6790;49.520;8.504;2023-11-21T08:40:29;9.70;99.90
13436;DHT22;6790;49.520;8.504;2023-11-21T08:42:55;9.70;99.90
13436;DHT22;6790;49.520;8.504;2023-11-21T08:45:21;9.60;99.90
13436;DHT22;6790;49.520;8.504;2023-11-21T08:47:48;9.60;99.90
13436;DHT22;6790;49.520;8.504;2023-11-21T08:50:14;9.60;99.90
13436;DHT22;6790;49.520;8.504;2023-11-21T08:52:40;9.60;99.90
13436;DHT22;6790;49.520;8.504;2023-11-21T08:55:07;9.60;99.90
13436;DHT22;6790;49.520;8.504;2023-11-21T08:57:37;9.60;99.90
13436;DHT22;6790;49.520;8.504;2023-11-21T09:00:04;9.60;99.90
13436;DHT22;6790;49.520;8.504;2023-11-21T09:02:41;9.60;99.90
13436;DHT22;6790;49.520;8.504;2023-11-21T09:05:08;9.70;99.90
13436;DHT22;6790;49.520;8.504;2023-11-21T09:07:38;9.70;99.90
13436;DHT22;6790;49.520;8.504;2023-11-21T09:10:06;9.70;99.90
13436;DHT22;6790;49.520;8.504;2023-11-21T09:12:33;9.90;99.90
13436;DHT22;6790;49.520;8.504;2023-11-21T09:15:02;9.90;99.90
13436;DHT22;6790;49.520;8.504;2023-11-21T09:17:30;9.80;99.90
13436;DHT22;6790;49.520;8.504;2023-11-21T09:19:55;9.90;99.90
13436;DHT22;6790;49.520;8.504;2023-11-21T09:22:22;10.00;99.90
13436;DHT22;6790;49.520;8.504;2023-11-21T09:24:50;10.00;99.90
13436;DHT22;6790;49.520;8.504;2023-11-21T09:27:16;10.00;99.90
13436;DHT22;6790;49.520;8.504;2023-11-21T09:29:42;9.90;99.90
13436;DHT22;6790;49.520;8.504;2023-11-21T09:32:08;10.00;99.90
13436;DHT22;6790;49.520;8.504;2023-11-21T09:34:38;10.00;99.90
13436;DHT22;6790;49.520;8.504;2023-11-21T09:37:07;10.00;99.90
13436;DHT22;6790;49.520;8.504;2023-11-21T09:39:33;10.10;99.90
13436;DHT22;6790;49.520;8.504;2023-11-21T09:42:10;9.90;99.90
13436;DHT22;6790;49.520;8.504;2023-11-21T09:44:48;10.00;99.90
13436;DHT22;6790;49.520;8.504;2023-11-21T09:47:17;10.10;99.90
13436;DHT22;6790;49.520;8.504;2023-11-21T09:49:48;10.00;99.90
13436;DHT22;6790;49.520;8.504;2023-11-21T09:55:37;10.20;99.90
13436;DHT22;6790;49.520;8.504;2023-11-21T09:58:04;10.10;99.90
13436;DHT22;6790;49.520;8.504;2023-11-21T10:00:33;10.20;99.90
13436;DHT22;6790;49.520;8.504;2023-11-21T10:02:59;10.20;99.90
13436;DHT22;6790;49.520;8.504;2023-11-21T10:05:25;10.10;99.90
13436;DHT22;6790;49.520;8.504;2023-11-21T10:07:51;10.20;99.90
13436;DHT22;6790;49.520;8.504;2023-11-21T10:10:21;10.20;99.90
13436;DHT22;6790;49.520;8.504;2023-11-21T10:12:50;10.20;99.90
13436;DHT22;6790;49.520;8.504;2023-11-21T10:15:21;10.20;99.90
13436;DHT22;6790;49.520;8.504;2023-11-21T10:17:49;10.30;99.90
13436;DHT22;6790;49.520;8.504;2023-11-21T10:20:16;10.20;99.90
13436;DHT22;6790;49.520;8.504;2023-11-21T10:22:42;10.20;99.90
13436;DHT22;6790;49.520;8.504;2023-11-21T10:25:09;10.30;99.90
13436;DHT22;6790;49.520;8.504;2023-11-21T10:27:38;10.20;99.90
13436;DHT22;6790;49.520;8.504;2023-11-21T10:30:05;10.20;99.90
13436;DHT22;6790;49.520;8.504;2023-11-21T10:32:31;10.20;99.90
13436;DHT22;6790;49.520;8.504;2023-11-21T10:34:59;10.10;99.90
13436;DHT22;6790;49.520;8.504;2023-11-21T10:37:32;10.10;99.90
13436;DHT22;6790;49.520;8.504;2023-11-21T10:40:01;10.00;99.90
13436;DHT22;6790;49.520;8.504;2023-11-21T10:42:27;10.10;99.90
13436;DHT22;6790;49.520;8.504;2023-11-21T10:44:54;10.10;99.90
13436;DHT22;6790;49.520;8.504;2023-11-21T10:47:20;10.00;99.90
13436;DHT22;6790;49.520;8.504;2023-11-21T10:49:49;10.00;99.90
13436;DHT22;6790;49.520;8.504;2023-11-21T10:52:14;10.00;99.90
13436;DHT22;6790;49.520;8.504;2023-11-21T10:54:43;9.90;99.90
13436;DHT22;6790;49.520;8.504;2023-11-21T10:57:10;10.00;99.90
13436;DHT22;6790;49.520;8.504;2023-11-21T10:59:36;10.00;99.90
13436;DHT22;6790;49.520;8.504;2023-11-21T11:02:16;9.90;99.90
13436;DHT22;6790;49.520;8.504;2023-11-21T11:04:48;10.00;99.90
13436;DHT22;6790;49.520;8.504;2023-11-21T11:07:14;10.10;99.90
13436;DHT22;6790;49.520;8.504;2023-11-21T11:09:44;10.10;99.90
13436;DHT22;6790;49.520;8.504;2023-11-21T11:12:10;10.20;99.90
13436;DHT22;6790;49.520;8.504;2023-11-21T11:14:40;10.30;99.90
13436;DHT22;6790;49.520;8.504;2023-11-21T11:17:07;10.30;99.90
13436;DHT22;6790;49.520;8.504;2023-11-21T11:19:34;10.30;99.90
13436;DHT22;6790;49.520;8.504;2023-11-21T11:36:29;10.10;99.90
13436;DHT22;6790;49.520;8.504;2023-11-21T11:39:00;10.20;99.90
13436;DHT22;6790;49.520;8.504;2023-11-21T11:41:31;10.20;99.90
13436;DHT22;6790;49.520;8.504;2023-11-21T11:44:03;10.30;99.90
13436;DHT22;6790;49.520;8.504;2023-11-21T11:46:45;10.20;99.90
13436;DHT22;6790;49.520;8.504;2023-11-21T11:49:27;10.20;99.90
13436;DHT22;6790;49.520;8.504;2023-11-21T11:55:06;10.30;99.90
13436;DHT22;6790;49.520;8.504;2023-11-21T11:57:35;10.40;99.90
13436;DHT22;6790;49.520;8.504;2023-11-21T12:00:18;10.50;99.90
13436;DHT22;6790;49.520;8.504;2023-11-21T12:02:48;10.60;99.90
13436;DHT22;6790;49.520;8.504;2023-11-21T12:05:18;10.60;99.90
13436;DHT22;6790;49.520;8.504;2023-11-21T12:07:50;10.80;99.90
13436;DHT22;6790;49.520;8.504;2023-11-21T12:10:22;10.70;99.90
13436;DHT22;6790;49.520;8.504;2023-11-21T12:15:26;10.90;99.90
13436;DHT22;6790;49.520;8.504;2023-11-21T12:17:56;10.90;99.90
13436;DHT22;6790;49.520;8.504;2023-11-21T12:20:24;11.00;99.90
13436;DHT22;6790;49.520;8.504;2023-11-21T12:22:51;11.00;99.90
13436;DHT22;6790;49.520;8.504;2023-11-21T12:25:22;11.00;99.90
13436;DHT22;6790;49.520;8.504;2023-11-21T12:27:50;11.20;99.90
13436;DHT22;6790;49.520;8.504;2023-11-21T12:30:18;11.10;99.90
13436;DHT22;6790;49.520;8.504;2023-11-21T12:32:54;11.10;99.90
13436;DHT22;6790;49.520;8.504;2023-11-21T12:35:28;10.90;99.90
13436;DHT22;6790;49.520;8.504;2023-11-21T12:37:56;10.90;99.90
13436;DHT22;6790;49.520;8.504;2023-11-21T12:40:23;11.00;99.90
13436;DHT22;6790;49.520;8.504;2023-11-21T12:42:54;11.10;99.90
13436;DHT22;6790;49.520;8.504;2023-11-21T12:47:52;11.10;99.90
13436;DHT22;6790;49.520;8.504;2023-11-21T12:50:25;11.20;99.90
13436;DHT22;6790;49.520;8.504;2023-11-21T12:53:07;11.30;99.90
13436;DHT22;6790;49.520;8.504;2023-11-21T12:55:35;11.30;99.90
13436;DHT22;6790;49.520;8.504;2023-11-21T12:58:06;11.20;99.90
13436;DHT22;6790;49.520;8.504;2023-11-21T13:00:38;11.20;99.90
13436;DHT22;6790;49.520;8.504;2023-11-21T13:03:06;11.20;99.90
13436;DHT22;6790;49.520;8.504;2023-11-21T13:05:35;11.30;99.90
13436;DHT22;6790;49.520;8.504;2023-11-21T13:08:05;11.30;99.90
13436;DHT22;6790;49.520;8.504;2023-11-21T13:10:40;11.30;99.90
13436;DHT22;6790;49.520;8.504;2023-11-21T13:13:09;11.30;99.90
13436;DHT22;6790;49.520;8.504;2023-11-21T13:15:39;11.30;99.90
13436;DHT22;6790;49.520;8.504;2023-11-21T13:18:08;11.30;99.90
13436;DHT22;6790;49.520;8.504;2023-11-21T13:20:36;11.30;99.90
13436;DHT22;6790;49.520;8.504;2023-11-21T13:23:07;11.30;99.90
13436;DHT22;6790;49.520;8.504;2023-11-21T13:25:34;11.30;99.90
13436;DHT22;6790;49.520;8.504;2023-11-21T13:28:00;11.30;99.90
13436;DHT22;6790;49.520;8.504;2023-11-21T13:30:26;11.30;99.90
13436;DHT22;6790;49.520;8.504;2023-11-21T13:32:53;11.20;99.90
13436;DHT22;6790;49.520;8.504;2023-11-21T13:35:23;11.10;99.90
13436;DHT22;6790;49.520;8.504;2023-11-21T13:37:57;11.20;99.90
13436;DHT22;6790;49.520;8.504;2023-11-21T13:40:26;11.10;99.90
13436;DHT22;6790;49.520;8.504;2023-11-21T13:42:55;11.20;99.90
13436;DHT22;6790;49.520;8.504;2023-11-21T13:45:25;11.10;99.90
13436;DHT22;6790;49.520;8.504;2023-11-21T13:47:53;11.20;99.90
13436;DHT22;6790;49.520;8.504;2023-11-21T13:50:26;11.30;99.90
13436;DHT22;6790;49.520;8.504;2023-11-21T13:52:59;11.30;99.90
13436;DHT22;6790;49.520;8.504;2023-11-21T13:55:34;11.20;99.90
13436;DHT22;6790;49.520;8.504;2023-11-21T13:58:01;11.20;99.90
13436;DHT22;6790;49.520;8.504;2023-11-21T14:00:28;11.10;99.90
13436;DHT22;6790;49.520;8.504;2023-11-21T14:03:12;11.20;99.90
13436;DHT22;6790;49.520;8.504;2023-11-21T14:05:48;11.10;99.90
13436;DHT22;6790;49.520;8.504;2023-11-21T14:08:23;11.10;99.90
13436;DHT22;6790;49.520;8.504;2023-11-21T14:10:54;11.10;99.90
13436;DHT22;6790;49.520;8.504;2023-11-21T14:13:28;11.10;99.90
13436;DHT22;6790;49.520;8.504;2023-11-21T14:15:53;11.00;99.90
13436;DHT22;6790;49.520;8.504;2023-11-21T14:18:28;11.00;99.90
13436;DHT22;6790;49.520;8.504;2023-11-21T14:21:04;11.00;99.90
13436;DHT22;6790;49.520;8.504;2023-11-21T14:23:35;11.00;99.90
13436;DHT22;6790;49.520;8.504;2023-11-21T14:26:03;10.90;99.90
13436;DHT22;6790;49.520;8.504;2023-11-21T14:28:31;10.90;99.90
13436;DHT22;6790;49.520;8.504;2023-11-21T14:30:57;10.90;99.90
13436;DHT22;6790;49.520;8.504;2023-11-21T14:33:22;10.80;99.90
13436;DHT22;6790;49.520;8.504;2023-11-21T14:35:48;10.80;99.90
13436;DHT22;6790;49.520;8.504;2023-11-21T14:38:15;10.80;99.90
13436;DHT22;6790;49.520;8.504;2023-11-21T14:40:41;10.80;99.90
13436;DHT22;6790;49.520;8.504;2023-11-21T14:43:07;10.80;99.90
13436;DHT22;6790;49.520;8.504;2023-11-21T14:45:33;10.70;99.90
13436;DHT22;6790;49.520;8.504;2023-11-21T14:48:00;10.70;99.90
13436;DHT22;6790;49.520;8.504;2023-11-21T14:50:37;10.70;99.90
13436;DHT22;6790;49.520;8.504;2023-11-21T14:53:05;10.70;99.90
13436;DHT22;6790;49.520;8.504;2023-11-21T14:55:35;10.60;99.90
13436;DHT22;6790;49.520;8.504;2023-11-21T14:58:19;10.60;99.90
13436;DHT22;6790;49.520;8.504;2023-11-21T15:01:01;10.60;99.90
13436;DHT22;6790;49.520;8.504;2023-11-21T15:03:27;10.50;99.90
13436;DHT22;6790;49.520;8.504;2023-11-21T15:06:01;10.50;99.90
13436;DHT22;6790;49.520;8.504;2023-11-21T15:08:54;10.50;99.90
13436;DHT22;6790;49.520;8.504;2023-11-21T15:11:53;10.50;99.90
13436;DHT22;6790;49.520;8.504;2023-11-21T15:14:23;10.40;99.90
13436;DHT22;6790;49.520;8.504;2023-11-21T15:16:51;10.40;99.90
13436;DHT22;6790;49.520;8.504;2023-11-21T15:19:18;10.40;99.90
13436;DHT22;6790;49.520;8.504;2023-11-21T15:21:50;10.30;99.90
13436;DHT22;6790;49.520;8.504;2023-11-21T15:24:16;10.30;99.90
13436;DHT22;6790;49.520;8.504;2023-11-21T15:26:42;10.30;99.90
13436;DHT22;6790;49.520;8.504;2023-11-21T15:29:08;10.30;99.90
13436;DHT22;6790;49.520;8.504;2023-11-21T15:31:34;10.20;99.90
13436;DHT22;6790;49.520;8.504;2023-11-21T15:34:01;10.20;99.90
13436;DHT22;6790;49.520;8.504;2023-11-21T15:36:27;10.20;99.90
13436;DHT22;6790;49.520;8.504;2023-11-21T15:38:53;10.20;99.90
13436;DHT22;6790;49.520;8.504;2023-11-21T15:41:19;10.10;99.90
13436;DHT22;6790;49.520;8.504;2023-11-21T15:43:45;10.10;99.90
13436;DHT22;6790;49.520;8.504;2023-11-21T15:46:13;10.10;99.90
13436;DHT22;6790;49.520;8.504;2023-11-21T15:48:39;10.00;99.90
13436;DHT22;6790;49.520;8.504;2023-11-21T15:51:09;10.00;99.90
13436;DHT22;6790;49.520;8.504;2023-11-21T15:53:38;10.00;99.90
13436;DHT22;6790;49.520;8.504;2023-11-21T15:56:07;9.90;99.90
13436;DHT22;6790;49.520;8.504;2023-11-21T15:58:38;9.90;99.90
13436;DHT22;6790;49.520;8.504;2023-11-21T16:01:08;9.90;99.90
13436;DHT22;6790;49.520;8.504;2023-11-21T16:03:36;9.80;99.90
13436;DHT22;6790;49.520;8.504;2023-11-21T16:06:02;9.80;99.90
13436;DHT22;6790;49.520;8.504;2023-11-21T16:08:29;9.80;99.90
13436;DHT22;6790;49.520;8.504;2023-11-21T16:10:55;9.80;99.90
13436;DHT22;6790;49.520;8.504;2023-11-21T16:13:21;9.80;99.90
13436;DHT22;6790;49.520;8.504;2023-11-21T16:15:47;9.70;99.90
13436;DHT22;6790;49.520;8.504;2023-11-21T16:18:13;9.70;99.90
13436;DHT22;6790;49.520;8.504;2023-11-21T16:20:38;9.70;99.90
13436;DHT22;6790;49.520;8.504;2023-11-21T16:23:04;9.70;99.90
13436;DHT22;6790;49.520;8.504;2023-11-21T16:25:30;9.70;99.90